ADDS METAR Data INFO
IDs: Format: Raw Decoded Include TAF

Data at: 0054 UTC 22 Oct 2017

KBAX 220034Z AUTO 18010KT 10SM CLR 18/11 A3015 RMK AO2 T01770111
KBAX 220015Z AUTO 18010G14KT 10SM CLR 18/11 A3015 RMK AO2 T01810110
KBAX 212354Z AUTO 18009KT 10SM CLR 18/11 A3015 RMK AO2 T01810110
KBAX 212335Z AUTO 17008KT 10SM CLR 18/11 A3015 RMK AO2 T01820111
KBAX 212315Z AUTO 16008KT 10SM CLR 19/11 A3015 RMK AO2 T01900110
KBAX 212254Z AUTO 16008KT 10SM CLR 20/11 A3014 RMK AO2 T01950112
KBAX 212235Z AUTO 17009KT 10SM CLR 20/11 A3014 RMK AO2 T01970112
KBAX 212215Z AUTO 17008KT 10SM CLR 20/11 A3013 RMK AO2 T01980113
KBAX 212154Z AUTO 18011G15KT 10SM CLR 21/11 A3013 RMK AO2 T02060110
KBAX 212135Z AUTO 18009G16KT 10SM CLR 21/11 A3013 RMK AO2 T02120106
KBAX 212114Z AUTO 18011G15KT 10SM CLR 22/11 A3013 RMK AO2 T02150109
KBAX 212054Z AUTO 18011KT 10SM CLR 22/10 A3012 RMK AO2 T02180104
KBAX 212035Z AUTO 17012G16KT 10SM CLR 22/11 A3013 RMK AO2 T02210108
KBAX 212014Z AUTO 17012KT 10SM CLR 22/11 A3013 RMK AO2 T02220109
KBAX 211954Z AUTO 17013KT 10SM CLR 23/11 A3013 RMK AO2 T02250110
KBAX 211935Z AUTO 17011KT 10SM CLR 23/11 A3013 RMK AO2 T02250110
KBAX 211914Z AUTO 18012KT 10SM CLR 22/11 A3014 RMK AO2 T02210107
KBAX 211854Z AUTO 18010KT 10SM CLR 22/10 A3014 RMK AO2 T02240098
KBAX 211835Z AUTO 18012KT 10SM CLR 23/10 A3015 RMK AO2 T02250098
KBAX 211814Z AUTO 18008KT 10SM CLR 21/11 A3015 RMK AO2 T02140112
KBAX 211754Z AUTO 18010G14KT 10SM CLR 22/11 A3015 RMK AO2 T02230108
KBAX 211735Z AUTO 19010KT 10SM CLR 22/12 A3016 RMK AO2 T02150116
KBAX 211714Z AUTO 17010KT 10SM CLR 20/12 A3017 RMK AO2 T02030115
KBAX 211655Z AUTO 19007KT 10SM CLR 20/11 A3017 RMK AO2 T02010111
KBAX 211635Z AUTO 19006KT 10SM CLR 20/11 A3018 RMK AO2 T01950108
KBAX 211614Z AUTO 21011KT 10SM CLR 20/11 A3018 RMK AO2 T01950105
KBAX 211555Z AUTO 19009KT 10SM CLR 19/11 A3018 RMK AO2 T01850106
KBAX 211534Z AUTO 19008KT 10SM CLR 17/11 A3019 RMK AO2 T01740110
KBAX 211515Z AUTO 18008KT 10SM CLR 17/11 A3018 RMK AO2 T01660109
KBAX 211455Z AUTO 18009KT 10SM CLR 15/10 A3019 RMK AO2 T01530103
KBAX 211434Z AUTO 18008KT 10SM CLR 15/10 A3019 RMK AO2 T01470102
KBAX 211415Z AUTO 18007KT 10SM CLR 14/10 A3019 RMK AO2 T01420100
KBAX 211355Z AUTO 17007KT 10SM CLR 14/10 A3019 RMK AO2 T01380098
KBAX 211334Z AUTO 17004KT 10SM CLR 13/10 A3019 RMK AO2 T01320096
KBAX 211315Z AUTO 18003KT 10SM CLR 13/09 A3020 RMK AO2 T01270093
KBAX 211254Z AUTO 16004KT 10SM CLR 12/09 A3019 RMK AO2 T01200088
KBAX 211234Z AUTO 16003KT 10SM CLR 12/09 A3019 RMK AO2 T01200086
KBAX 211215Z AUTO 15004KT 10SM CLR 12/09 A3018 RMK AO2 T01200085
KBAX 211154Z AUTO 18005KT 10SM CLR 12/08 A3018 RMK AO2 T01150084
KBAX 211134Z AUTO 18003KT 10SM CLR 13/09 A3018 RMK AO2 T01250089
KBAX 211115Z AUTO 20006KT 10SM CLR 13/09 A3018 RMK AO2 T01270090
KBAX 211054Z AUTO 20006KT 10SM CLR 12/09 A3017 RMK AO2 T01230086
KBAX 211034Z AUTO 20005KT 10SM CLR 12/08 A3017 RMK AO2 T01210083
KBAX 211015Z AUTO 21006KT 10SM CLR 13/09 A3017 RMK AO2 T01300087
KBAX 210954Z AUTO 20005KT 10SM CLR 13/09 A3016 RMK AO2 T01250085
KBAX 210934Z AUTO 21004KT 10SM CLR 13/09 A3016 RMK AO2 T01270085
KBAX 210915Z AUTO 20006KT 10SM CLR 13/09 A3015 RMK AO2 T01260085
KBAX 210854Z AUTO 20006KT 10SM CLR 12/08 A3015 RMK AO2 T01200081
KBAX 210835Z AUTO 20005KT 10SM CLR 12/08 A3015 RMK AO2 T01150076
KBAX 210815Z AUTO 20003KT 10SM CLR 12/08 A3015 RMK AO2 T01180076
KBAX 210754Z AUTO 20005KT 10SM CLR 12/08 A3015 RMK AO2 T01160078
KBAX 210735Z AUTO 19003KT 10SM CLR 11/07 A3015 RMK AO2 T01110074
KBAX 210715Z AUTO 19005KT 10SM CLR 11/07 A3015 RMK AO2 T01110073
KBAX 210654Z AUTO 19007KT 10SM CLR 12/08 A3015 RMK AO2 T01180077
KBAX 210635Z AUTO 17006KT 10SM CLR 12/08 A3014 RMK AO2 T01200076
KBAX 210614Z AUTO 19007KT 10SM CLR 12/08 A3014 RMK AO2 T01240076
KBAX 210554Z AUTO 19006KT 10SM CLR 12/07 A3014 RMK AO2 T01180074
KBAX 210535Z AUTO 19006KT 10SM CLR 13/07 A3014 RMK AO2 T01250074
KBAX 210514Z AUTO 19006KT 10SM CLR 13/07 A3014 RMK AO2 T01280073
KBAX 210454Z AUTO 19007KT 10SM CLR 13/08 A3014 RMK AO2 T01300075
KBAX 210435Z AUTO 19008KT 10SM CLR 12/07 A3013 RMK AO2 T01240073
KBAX 210414Z AUTO 19007KT 10SM CLR 12/07 A3013 RMK AO2 T01220071
KBAX 210354Z AUTO 18006KT 10SM CLR 13/07 A3013 RMK AO2 T01260070
KBAX 210334Z AUTO 17004KT 10SM CLR 13/07 A3013 RMK AO2 T01300070
KBAX 210314Z AUTO 18005KT 10SM CLR 13/07 A3013 RMK AO2 T01340070
KBAX 210255Z AUTO 18006KT 10SM CLR 13/07 A3013 RMK AO2 T01320068
KBAX 210234Z AUTO 19008KT 10SM CLR 14/07 A3013 RMK AO2 T01400068
KBAX 210214Z AUTO 19006KT 10SM CLR 14/07 A3013 RMK AO2 T01400067
KBAX 210155Z AUTO 19005KT 10SM CLR 14/07 A3012 RMK AO2 T01370065
KBAX 210134Z AUTO 19006KT 10SM CLR 15/06 A3012 RMK AO2 T01500064
KBAX 210114Z AUTO 19008KT 10SM CLR 15/06 A3012 RMK AO2 T01540062
KBAX 210055Z AUTO 18007KT 10SM CLR 15/07 A3012 RMK AO2 T01500067
KBAX 210034Z AUTO 18008KT 10SM CLR 15/07 A3012 RMK AO2 T01500073
KBAX 210014Z AUTO 17005KT 10SM CLR 15/08 A3012 RMK AO2 T01540078
KBAX 202355Z AUTO 18006KT 10SM CLR 16/08 A3012 RMK AO2 T01580077 10243 20158
KBAX 202334Z AUTO 18007KT 10SM CLR 16/08 A3012 RMK AO2 T01640081
KBAX 202315Z AUTO 18006KT 10SM CLR 16/09 A3011 RMK AO2 T01600085
KBAX 202255Z AUTO 17005KT 10SM CLR 17/09 A3011 RMK AO2 T01670085
KBAX 202234Z AUTO 20006KT 10SM CLR 18/08 A3011 RMK AO2 T01840084
KBAX 202215Z AUTO 21007KT 10SM CLR 20/08 A3011 RMK AO2 T02010081
KBAX 202154Z AUTO 21007KT 10SM CLR 21/08 A3010 RMK AO2 T02120081
KBAX 202134Z AUTO 21009G14KT 10SM CLR 22/08 A3010 RMK AO2 T02200080
KBAX 202115Z AUTO 21011G16KT 10SM CLR 23/08 A3011 RMK AO2 T02250078
KBAX 202054Z AUTO 21012G19KT 10SM CLR 23/07 A3011 RMK AO2 T02320074
KBAX 202034Z AUTO 22010G17KT 10SM CLR 24/07 A3012 RMK AO2 T02370073
KBAX 202015Z AUTO 22012G20KT 10SM CLR 24/07 A3012 RMK AO2 T02400071
KBAX 201954Z AUTO 22015G19KT 10SM CLR 24/07 A3012 RMK AO2 T02410069
KBAX 201935Z AUTO 22013G22KT 10SM CLR 24/07 A3013 RMK AO2 T02400067
KBAX 201914Z AUTO 22011G18KT 10SM CLR 24/07 A3013 RMK AO2 T02420068
KBAX 201854Z AUTO 22017G21KT 10SM CLR 24/07 A3013 RMK AO2 T02400069
KBAX 201835Z AUTO 22014G18KT 10SM CLR 24/07 A3014 RMK AO2 T02400074
KBAX 201814Z AUTO 22011KT 10SM CLR 24/09 A3015 RMK AO2 T02380086
KBAX 201754Z AUTO 23009G17KT 10SM CLR 23/08 A3016 RMK AO2 T02330082
KBAX 201735Z AUTO 21013G16KT 10SM CLR 23/08 A3017 RMK AO2 T02310080
KBAX 201714Z AUTO 20012KT 10SM CLR 23/08 A3018 RMK AO2 T02260077
KBAX 201654Z AUTO 19012G16KT 10SM CLR 22/07 A3018 RMK AO2 T02200072
KBAX 201635Z AUTO 20012KT 10SM CLR 22/06 A3019 RMK AO2 T02170062
KBAX 201614Z AUTO 19010KT 10SM CLR 21/04 A3020 RMK AO2 T02050040
KBAX 201555Z AUTO 20010KT 10SM CLR 20/04 A3020 RMK AO2 T01980037
KBAX 201535Z AUTO 20009KT 10SM CLR 19/01 A3022 RMK AO2 T01890013
KBAX 201514Z AUTO 20009KT 10SM CLR 18/00 A3022 RMK AO2 T01760003
KBAX 201455Z AUTO 21010G14KT 10SM CLR 17/00 A3023 RMK AO2 T01681002
KBAX 201434Z AUTO 21006KT 10SM CLR 16/01 A3023 RMK AO2 T01550005
KBAX 201414Z AUTO 20005KT 10SM CLR 14/02 A3023 RMK AO2 T01410022
KBAX 201355Z AUTO 20003KT 10SM CLR 13/04 A3023 RMK AO2 T01280038
KBAX 201334Z AUTO 00000KT 10SM CLR 11/05 A3023 RMK AO2 T01050045
KBAX 201314Z AUTO 00000KT 10SM CLR 09/03 A3023 RMK AO2 T00900032
KBAX 201255Z AUTO 17004KT 10SM CLR 07/01 A3023 RMK AO2 T00700010